Terminal Aerodrome Forecast
Issued by NWS

Home | Current Version | Previous Version | Text Only | Print | Product List | Glossary On
Versions: 1 2 3 4 5 6 7 8 9 10 11 12 13 14
000
FTUS43 KPAH 250520
TAFOWB
TAF
KOWB 250520Z 2506/2606 29006KT 6SM -RA BR SCT008 BKN015
     FM250900 28012KT 5SM -RADZ BR BKN008
     FM251600 28009G18KT P6SM BKN025
     FM260000 20003KT P6SM FEW250=

USA.gov is the U.S. government's official web portal to all federal, state and local government web resources and services.